createdAt,value
2022-08-28T00:00:55.039Z,18.99
2022-08-28T00:05:59.963Z,19.01
2022-08-28T00:11:02.717Z,19.03
2022-08-28T00:16:06.801Z,19.01
2022-08-28T00:21:11.269Z,18.95
2022-08-28T00:26:34.619Z,18.96
2022-08-28T00:31:38.488Z,19.00
2022-08-28T00:36:42.731Z,19.02
2022-08-28T00:41:45.498Z,18.97
2022-08-28T00:46:49.933Z,18.97
2022-08-28T00:52:09.079Z,18.96
2022-08-28T00:57:17.199Z,18.92
2022-08-28T01:02:20.286Z,18.88
2022-08-28T01:07:24.487Z,18.81
2022-08-28T01:12:30.279Z,18.75
2022-08-28T01:17:35.198Z,18.66
2022-08-28T01:22:41.996Z,18.62
2022-08-28T01:27:46.005Z,18.60
2022-08-28T01:32:53.707Z,18.53
2022-08-28T01:37:57.144Z,18.51
2022-08-28T01:43:10.028Z,18.51
2022-08-28T01:48:13.643Z,18.47
2022-08-28T01:53:18.337Z,18.44
2022-08-28T01:58:24.442Z,18.34
2022-08-28T02:03:30.280Z,18.27
2022-08-28T02:08:33.007Z,18.20
2022-08-28T02:13:38.878Z,18.18
2022-08-28T02:18:41.776Z,18.13
2022-08-28T02:23:46.151Z,18.09
2022-08-28T02:28:50.269Z,18.09
2022-08-28T02:33:53.051Z,17.97
2022-08-28T02:38:57.964Z,17.86
2022-08-28T02:44:02.403Z,17.80
2022-08-28T02:49:05.089Z,17.79
2022-08-28T02:54:07.861Z,17.62
2022-08-28T02:59:11.863Z,17.60
2022-08-28T03:04:14.555Z,17.58
2022-08-28T03:09:17.284Z,17.52
2022-08-28T03:14:21.953Z,17.56
2022-08-28T03:19:24.997Z,17.59
2022-08-28T03:24:28.837Z,17.59
2022-08-28T03:29:33.344Z,17.65
2022-08-28T03:34:36.087Z,17.59
2022-08-28T03:39:38.817Z,17.55
2022-08-28T03:44:42.856Z,17.51
2022-08-28T03:49:46.352Z,17.44
2022-08-28T03:54:49.147Z,17.39
2022-08-28T03:59:54.803Z,17.27
2022-08-28T04:04:58.058Z,17.22
2022-08-28T04:10:00.880Z,17.20
2022-08-28T04:15:06.974Z,17.20
2022-08-28T04:20:11.963Z,17.16
2022-08-28T04:25:14.835Z,17.05
2022-08-28T04:30:19.960Z,17.01
2022-08-28T04:35:23.106Z,16.89
2022-08-28T04:40:26.100Z,16.79
2022-08-28T04:45:30.461Z,16.74
2022-08-28T04:50:33.672Z,16.72
2022-08-28T04:55:54.503Z,16.72
2022-08-28T05:00:59.898Z,16.77
2022-08-28T05:06:03.619Z,16.82
2022-08-28T05:11:27.315Z,16.88
2022-08-28T05:16:44.110Z,16.84
2022-08-28T05:21:47.128Z,16.89
2022-08-28T05:26:50.010Z,17.07
2022-08-28T05:31:54.551Z,17.14
2022-08-28T05:36:57.284Z,17.17
2022-08-28T05:42:00.060Z,17.18
2022-08-28T05:47:04.255Z,17.08
2022-08-28T05:52:07.002Z,17.04
2022-08-28T05:57:10.904Z,16.97
2022-08-28T06:02:15.069Z,17.01
2022-08-28T06:07:19.302Z,16.89
2022-08-28T06:12:22.066Z,16.84
2022-08-28T06:17:26.117Z,16.85
2022-08-28T06:22:28.937Z,16.87
2022-08-28T06:27:33.571Z,16.84
2022-08-28T06:32:37.687Z,16.89
2022-08-28T06:37:40.399Z,16.93
2022-08-28T06:42:43.103Z,17.04
2022-08-28T06:47:48.582Z,17.08
2022-08-28T06:52:53.617Z,17.15
2022-08-28T06:57:56.311Z,17.00
2022-08-28T07:03:00.666Z,17.02
2022-08-28T07:08:03.796Z,17.12
2022-08-28T07:13:06.881Z,17.22
2022-08-28T07:18:11.083Z,17.22
2022-08-28T07:23:13.911Z,17.15
2022-08-28T07:28:16.953Z,17.17
2022-08-28T07:33:21.188Z,17.21
2022-08-28T07:38:25.299Z,17.27
2022-08-28T07:43:45.653Z,17.25
2022-08-28T07:48:50.289Z,17.20
2022-08-28T07:53:53.403Z,17.28
2022-08-28T07:58:57.738Z,17.13
2022-08-28T08:04:02.383Z,17.13
2022-08-28T08:09:06.318Z,17.11
2022-08-28T08:14:10.034Z,17.21
2022-08-28T08:19:14.937Z,17.14
2022-08-28T08:24:21.033Z,17.12
2022-08-28T08:29:24.758Z,17.25
2022-08-28T08:34:28.792Z,17.37
2022-08-28T08:39:31.866Z,17.72
2022-08-28T08:44:38.285Z,18.10
2022-08-28T08:49:44.914Z,18.19
2022-08-28T08:54:59.364Z,18.54
2022-08-28T09:00:03.736Z,18.63
2022-08-28T09:05:10.458Z,18.75
2022-08-28T09:10:15.576Z,18.77
2022-08-28T09:15:22.260Z,18.69
2022-08-28T09:20:32.801Z,18.89
2022-08-28T09:25:52.025Z,19.07
2022-08-28T09:30:59.185Z,19.15
2022-08-28T09:36:31.890Z,19.17
2022-08-28T09:41:55.194Z,19.41
2022-08-28T09:46:58.271Z,19.35
2022-08-28T09:52:20.810Z,19.35
2022-08-28T09:57:27.316Z,19.73
2022-08-28T10:02:39.252Z,19.70
2022-08-28T10:07:48.654Z,19.71
2022-08-28T10:13:02.040Z,19.84
2022-08-28T10:18:18.481Z,19.97
2022-08-28T10:23:28.974Z,19.89
2022-08-28T10:28:43.017Z,19.98
2022-08-28T10:34:11.077Z,20.11
2022-08-28T10:39:25.242Z,20.28
2022-08-28T10:44:31.803Z,20.36
2022-08-28T10:49:38.141Z,20.44
2022-08-28T10:54:47.030Z,20.58
2022-08-28T10:59:51.671Z,20.72
2022-08-28T11:04:58.486Z,20.93
2022-08-28T11:15:50.290Z,21.22
2022-08-28T11:20:58.369Z,21.49
2022-08-28T11:26:05.250Z,21.70
2022-08-28T11:31:31.597Z,22.03
2022-08-28T11:36:58.186Z,22.39
2022-08-28T11:42:39.533Z,23.29
2022-08-28T11:47:49.031Z,25.58
2022-08-28T11:53:24.657Z,25.35
2022-08-28T11:58:31.745Z,25.85
2022-08-28T12:03:39.067Z,28.37
2022-08-28T12:09:12.271Z,28.18
2022-08-28T12:15:07.680Z,28.00
2022-08-28T12:20:17.808Z,27.35
2022-08-28T12:25:29.037Z,27.31
2022-08-28T12:30:33.627Z,27.55
2022-08-28T12:35:38.102Z,27.18
2022-08-28T12:40:50.390Z,26.63
2022-08-28T12:45:55.645Z,27.35
2022-08-28T12:51:03.144Z,27.57
2022-08-28T12:56:06.224Z,27.53
2022-08-28T13:01:11.510Z,27.11
2022-08-28T13:06:23.644Z,27.00
2022-08-28T13:11:26.432Z,26.96
2022-08-28T13:16:38.635Z,27.03
2022-08-28T13:21:58.526Z,27.24
2022-08-28T13:27:04.191Z,27.06
2022-08-28T13:32:09.116Z,27.14
2022-08-28T13:37:44.453Z,27.07
2022-08-28T13:42:47.970Z,27.08
2022-08-28T13:47:50.683Z,27.35
2022-08-28T13:52:54.787Z,27.09
2022-08-28T13:57:57.654Z,27.25
2022-08-28T14:03:18.012Z,27.30
2022-08-28T14:08:22.658Z,27.32
2022-08-28T14:13:27.583Z,27.46
2022-08-28T14:18:30.324Z,27.67
2022-08-28T14:23:34.578Z,27.89
2022-08-28T14:28:37.334Z,27.84
2022-08-28T14:33:40.357Z,27.99
2022-08-28T14:38:47.238Z,28.08
2022-08-28T14:43:50.329Z,28.46
2022-08-28T14:48:53.181Z,28.64
2022-08-28T14:53:59.034Z,28.66
2022-08-28T14:59:03.232Z,28.79
2022-08-28T15:04:07.510Z,28.51
2022-08-28T15:09:12.107Z,28.33
2022-08-28T15:14:14.844Z,27.99
2022-08-28T15:19:18.385Z,28.05
2022-08-28T15:24:24.703Z,27.80
2022-08-28T15:29:28.263Z,27.67
2022-08-28T15:34:31.156Z,27.36
2022-08-28T15:39:53.052Z,26.94
2022-08-28T15:44:55.944Z,26.60
2022-08-28T15:50:00.464Z,26.63
2022-08-28T15:55:06.248Z,26.86
2022-08-28T16:00:10.638Z,26.98
2022-08-28T16:05:13.865Z,26.93
2022-08-28T16:10:19.477Z,26.68
2022-08-28T16:15:22.497Z,26.55
2022-08-28T16:20:25.668Z,26.23
2022-08-28T16:25:29.835Z,26.17
2022-08-28T16:30:33.316Z,26.07
2022-08-28T16:35:40.687Z,25.90
2022-08-28T16:40:52.672Z,25.69
2022-08-28T16:45:55.555Z,25.45
2022-08-28T16:50:58.444Z,25.22
2022-08-28T16:56:02.749Z,24.97
2022-08-28T17:01:06.382Z,24.73
2022-08-28T17:06:12.851Z,24.34
2022-08-28T17:11:17.266Z,24.13
2022-08-28T17:16:21.080Z,23.92
2022-08-28T17:21:41.927Z,23.79
2022-08-28T17:26:46.060Z,23.60
2022-08-28T17:31:48.904Z,23.38
2022-08-28T17:36:52.713Z,23.18
2022-08-28T17:41:57.607Z,22.99
2022-08-28T17:47:00.856Z,22.73
2022-08-28T17:52:04.120Z,22.37
2022-08-28T17:57:08.498Z,21.78
2022-08-28T18:02:11.683Z,21.74
2022-08-28T18:07:14.519Z,21.78
2022-08-28T18:12:18.685Z,21.71
2022-08-28T18:17:21.538Z,21.65
2022-08-28T18:22:29.470Z,21.64
2022-08-28T18:27:34.992Z,21.51
2022-08-28T18:32:38.023Z,21.40
2022-08-28T18:37:41.178Z,21.32
2022-08-28T18:42:45.476Z,21.20
2022-08-28T18:47:48.195Z,21.09
2022-08-28T18:52:51.466Z,21.03
2022-08-28T18:57:56.132Z,20.87
2022-08-28T19:03:00.010Z,20.77
2022-08-28T19:08:02.960Z,20.67
2022-08-28T19:13:08.472Z,20.53
2022-08-28T19:18:11.290Z,20.39
2022-08-28T19:23:17.405Z,20.37
2022-08-28T19:28:22.206Z,20.25
2022-08-28T19:33:25.060Z,20.16
2022-08-28T19:38:31.168Z,20.13
2022-08-28T19:43:43.114Z,20.07
2022-08-28T19:48:46.929Z,19.97
2022-08-28T19:53:56.853Z,19.89
2022-08-28T19:59:03.730Z,19.82
2022-08-28T20:04:08.081Z,19.69
2022-08-28T20:09:13.058Z,19.65
2022-08-28T20:14:19.304Z,19.59
2022-08-28T20:19:22.618Z,19.48
2022-08-28T20:24:25.418Z,19.42
2022-08-28T20:29:29.608Z,19.37
2022-08-28T20:34:32.495Z,19.33
2022-08-28T20:39:37.016Z,19.26
2022-08-28T20:44:41.301Z,19.12
2022-08-28T20:49:44.198Z,19.10
2022-08-28T20:54:47.277Z,19.07
2022-08-28T20:59:54.087Z,19.09
2022-08-28T21:04:57.097Z,18.98
2022-08-28T21:10:05.456Z,18.97
2022-08-28T21:15:13.107Z,18.96
2022-08-28T21:20:16.513Z,18.87
2022-08-28T21:25:21.099Z,18.79
2022-08-28T21:30:25.468Z,18.86
2022-08-28T21:35:32.709Z,18.88
2022-08-28T21:40:36.230Z,18.82
2022-08-28T21:45:40.342Z,18.78
2022-08-28T21:50:43.399Z,18.78
2022-08-28T21:55:49.031Z,18.85
2022-08-28T22:00:56.814Z,18.89
2022-08-28T22:05:59.616Z,18.87
2022-08-28T22:11:02.634Z,18.81
2022-08-28T22:16:07.456Z,18.79
2022-08-28T22:21:31.097Z,18.76
2022-08-28T22:26:33.940Z,18.72
2022-08-28T22:31:45.495Z,18.64
2022-08-28T22:36:49.162Z,18.68
2022-08-28T22:41:52.020Z,18.56
2022-08-28T22:46:56.142Z,18.52
2022-08-28T22:51:58.857Z,18.54
2022-08-28T22:57:02.289Z,18.43
2022-08-28T23:02:06.488Z,18.45
2022-08-28T23:07:09.190Z,18.42
2022-08-28T23:12:11.890Z,18.38
2022-08-28T23:17:16.921Z,18.35
2022-08-28T23:22:19.917Z,18.28
2022-08-28T23:27:38.202Z,18.20
2022-08-28T23:32:42.490Z,18.12
2022-08-28T23:37:48.879Z,18.05
2022-08-28T23:42:55.592Z,17.95
2022-08-28T23:47:59.654Z,17.90
2022-08-28T23:53:02.609Z,17.77
2022-08-28T23:58:05.750Z,17.65
